createdAt,value
2023-05-16T00:01:38.326Z,80.50
2023-05-16T00:04:05.965Z,80.40
2023-05-16T00:06:33.439Z,80.40
2023-05-16T00:09:00.538Z,80.40
2023-05-16T00:11:27.731Z,80.40
2023-05-16T00:13:54.748Z,80.40
2023-05-16T00:16:22.064Z,80.50
2023-05-16T00:18:50.460Z,80.60
2023-05-16T00:21:17.643Z,80.60
2023-05-16T00:23:44.837Z,80.90
2023-05-16T00:26:11.954Z,81.10
2023-05-16T00:28:43.975Z,81.20
2023-05-16T00:31:11.068Z,81.30
2023-05-16T00:33:38.056Z,81.30
2023-05-16T00:36:05.644Z,81.40
2023-05-16T00:38:32.688Z,81.30
2023-05-16T00:41:00.130Z,81.30
2023-05-16T00:43:27.229Z,81.30
2023-05-16T00:45:54.363Z,81.30
2023-05-16T00:48:21.581Z,81.30
2023-05-16T00:50:49.564Z,81.20
2023-05-16T00:53:16.949Z,81.20
2023-05-16T00:55:44.199Z,81.00
2023-05-16T00:58:15.057Z,81.00
2023-05-16T01:00:42.694Z,81.00
2023-05-16T01:03:09.966Z,80.80
2023-05-16T01:05:38.325Z,80.80
2023-05-16T01:08:06.379Z,80.90
2023-05-16T01:10:44.204Z,80.80
2023-05-16T01:13:43.656Z,80.90
2023-05-16T01:16:22.394Z,80.80
2023-05-16T01:19:06.155Z,80.70
2023-05-16T01:22:02.512Z,80.70
2023-05-16T01:24:35.052Z,81.00
2023-05-16T01:27:04.957Z,81.00
2023-05-16T01:29:33.963Z,81.00
2023-05-16T01:32:01.312Z,81.10
2023-05-16T01:34:28.456Z,81.30
2023-05-16T01:37:02.993Z,81.20
2023-05-16T01:39:37.424Z,81.10
2023-05-16T01:42:14.929Z,81.10
2023-05-16T01:44:49.856Z,81.00
2023-05-16T01:47:19.537Z,81.10
2023-05-16T01:50:00.345Z,81.10
2023-05-16T01:52:38.930Z,81.00
2023-05-16T01:55:11.112Z,80.90
2023-05-16T01:57:40.531Z,80.70
2023-05-16T02:00:08.830Z,80.60
2023-05-16T02:02:53.209Z,80.60
2023-05-16T02:05:20.752Z,80.60
2023-05-16T02:07:48.064Z,80.70
2023-05-16T02:10:15.420Z,81.00
2023-05-16T02:13:08.023Z,80.90
2023-05-16T02:15:38.120Z,80.90
2023-05-16T02:18:05.772Z,80.80
2023-05-16T02:20:36.083Z,80.60
2023-05-16T02:23:05.938Z,80.70
2023-05-16T02:25:33.045Z,80.80
2023-05-16T02:28:00.205Z,80.90
2023-05-16T02:30:27.666Z,81.30
2023-05-16T02:33:05.255Z,81.40
2023-05-16T02:35:32.467Z,81.50
2023-05-16T02:38:00.537Z,81.70
2023-05-16T02:40:27.677Z,81.60
2023-05-16T02:42:54.745Z,81.70
2023-05-16T02:45:21.856Z,81.60
2023-05-16T02:47:49.048Z,81.50
2023-05-16T02:50:16.149Z,81.60
2023-05-16T02:52:43.229Z,81.70
2023-05-16T02:55:21.685Z,81.70
2023-05-16T02:57:50.801Z,81.80
2023-05-16T03:00:18.845Z,81.70
2023-05-16T03:02:46.452Z,81.50
2023-05-16T03:05:13.856Z,81.40
2023-05-16T03:07:41.860Z,81.20
2023-05-16T03:10:09.480Z,81.40
2023-05-16T03:12:36.629Z,81.40
2023-05-16T03:15:05.022Z,81.50
2023-05-16T03:17:32.318Z,81.40
2023-05-16T03:19:59.655Z,81.30
2023-05-16T03:22:27.898Z,81.20
2023-05-16T03:24:54.936Z,80.90
2023-05-16T03:27:23.246Z,81.00
2023-05-16T03:29:50.285Z,80.90
2023-05-16T03:32:17.501Z,80.70
2023-05-16T03:34:44.463Z,80.70
2023-05-16T03:37:11.591Z,80.70
2023-05-16T03:39:38.690Z,80.50
2023-05-16T03:42:05.952Z,80.40
2023-05-16T03:44:33.129Z,80.50
2023-05-16T03:47:00.368Z,80.80
2023-05-16T03:49:30.626Z,80.80
2023-05-16T03:51:57.765Z,80.80
2023-05-16T03:54:24.839Z,81.00
2023-05-16T03:56:52.050Z,81.00
2023-05-16T03:59:19.185Z,80.90
2023-05-16T04:01:46.268Z,80.90
2023-05-16T04:04:14.286Z,81.00
2023-05-16T04:06:41.383Z,81.20
2023-05-16T04:09:09.786Z,81.20
2023-05-16T04:11:38.782Z,81.00
2023-05-16T04:14:05.915Z,80.80
2023-05-16T04:16:33.048Z,80.80
2023-05-16T04:19:00.191Z,80.80
2023-05-16T04:21:27.294Z,80.90
2023-05-16T04:23:54.370Z,81.10
2023-05-16T04:26:22.661Z,80.80
2023-05-16T04:28:49.604Z,80.60
2023-05-16T04:31:17.011Z,80.40
2023-05-16T04:33:44.069Z,80.10
2023-05-16T04:36:11.155Z,79.80
2023-05-16T04:38:38.166Z,79.30
2023-05-16T04:41:05.254Z,79.10
2023-05-16T04:43:32.340Z,78.90
2023-05-16T04:45:59.357Z,78.90
2023-05-16T04:48:26.371Z,79.10
2023-05-16T04:50:53.495Z,78.80
2023-05-16T04:53:20.498Z,78.80
2023-05-16T04:55:47.547Z,79.00
2023-05-16T04:58:14.499Z,79.10
2023-05-16T05:00:41.965Z,79.30
2023-05-16T05:03:09.130Z,79.00
2023-05-16T05:05:36.457Z,79.00
2023-05-16T05:08:04.626Z,78.30
2023-05-16T05:10:31.838Z,78.30
2023-05-16T05:12:58.920Z,78.30
2023-05-16T05:15:26.172Z,77.10
2023-05-16T05:17:56.845Z,76.70
2023-05-16T05:20:24.229Z,76.70
2023-05-16T05:22:51.238Z,76.20
2023-05-16T05:25:18.383Z,75.50
2023-05-16T05:27:45.440Z,75.40
2023-05-16T05:30:12.699Z,76.00
2023-05-16T05:32:42.207Z,75.60
2023-05-16T05:35:11.797Z,75.10
2023-05-16T05:37:38.736Z,75.80
2023-05-16T05:40:06.586Z,75.20
2023-05-16T05:42:33.975Z,74.90
2023-05-16T05:45:01.012Z,75.40
2023-05-16T05:47:28.187Z,74.40
2023-05-16T05:49:55.354Z,74.70
2023-05-16T05:52:22.318Z,74.90
2023-05-16T05:54:49.438Z,74.30
2023-05-16T05:57:16.428Z,74.10
2023-05-16T05:59:43.473Z,73.20
2023-05-16T06:02:13.201Z,73.10
2023-05-16T06:04:42.750Z,73.00
2023-05-16T06:07:09.831Z,73.00
2023-05-16T06:09:36.868Z,72.70
2023-05-16T06:12:04.365Z,71.40
2023-05-16T06:14:31.358Z,71.00
2023-05-16T06:16:58.744Z,70.40
2023-05-16T06:19:25.964Z,70.30
2023-05-16T06:21:53.026Z,71.40
2023-05-16T06:24:20.047Z,70.70
2023-05-16T06:26:50.215Z,70.20
2023-05-16T06:29:17.520Z,69.90
2023-05-16T06:31:46.468Z,69.80
2023-05-16T06:34:13.747Z,70.00
2023-05-16T06:36:40.892Z,70.00
2023-05-16T06:39:07.886Z,68.70
2023-05-16T06:41:34.877Z,67.90
2023-05-16T06:44:05.065Z,68.00
2023-05-16T06:46:32.890Z,68.10
2023-05-16T06:48:59.987Z,68.00
2023-05-16T06:51:27.020Z,67.70
2023-05-16T06:53:53.997Z,68.90
2023-05-16T06:56:21.701Z,67.20
2023-05-16T06:58:49.672Z,65.50
2023-05-16T07:01:17.246Z,64.70
2023-05-16T07:03:44.396Z,65.10
2023-05-16T07:06:11.667Z,65.50
2023-05-16T07:08:38.784Z,65.20
2023-05-16T07:11:05.942Z,65.20
2023-05-16T07:13:35.721Z,64.60
2023-05-16T07:16:03.914Z,63.70
2023-05-16T07:18:31.063Z,62.60
2023-05-16T07:20:58.392Z,61.10
2023-05-16T07:23:25.531Z,61.00
2023-05-16T07:25:53.413Z,60.70
2023-05-16T07:28:22.176Z,60.80
2023-05-16T07:30:49.228Z,60.00
2023-05-16T07:33:16.332Z,60.20
2023-05-16T07:35:43.842Z,61.60
2023-05-16T07:38:11.717Z,61.00
2023-05-16T07:40:38.840Z,61.20
2023-05-16T07:43:05.966Z,61.70
2023-05-16T07:45:33.040Z,60.30
2023-05-16T07:48:00.496Z,61.00
2023-05-16T07:50:27.708Z,60.80
2023-05-16T07:52:55.009Z,59.30
2023-05-16T07:55:22.305Z,60.40
2023-05-16T07:57:50.672Z,61.00
2023-05-16T08:00:18.615Z,60.60
2023-05-16T08:02:45.936Z,59.30
2023-05-16T08:05:13.071Z,59.30
2023-05-16T08:07:40.101Z,59.40
2023-05-16T08:10:11.785Z,59.00
2023-05-16T08:12:40.452Z,58.20
2023-05-16T08:15:08.245Z,57.50
2023-05-16T08:17:35.775Z,59.60
2023-05-16T08:20:04.234Z,58.00
2023-05-16T08:22:33.296Z,58.10
2023-05-16T08:25:00.850Z,58.10
2023-05-16T08:27:29.151Z,60.40
2023-05-16T08:29:56.327Z,57.70
2023-05-16T08:32:23.482Z,57.60
2023-05-16T08:34:50.761Z,58.50
2023-05-16T08:37:17.806Z,58.50
2023-05-16T08:39:45.023Z,57.60
2023-05-16T08:42:12.403Z,57.80
2023-05-16T08:44:39.771Z,58.10
2023-05-16T08:47:18.919Z,56.60
2023-05-16T08:49:48.565Z,57.40
2023-05-16T08:52:21.208Z,57.70
2023-05-16T08:55:05.642Z,58.00
2023-05-16T08:57:37.955Z,58.60
2023-05-16T09:00:13.434Z,57.70
2023-05-16T09:02:42.640Z,58.30
2023-05-16T09:05:12.437Z,57.00
2023-05-16T09:07:42.523Z,59.30
2023-05-16T09:10:10.481Z,59.10
2023-05-16T09:12:39.088Z,57.80
2023-05-16T09:15:07.928Z,57.20
2023-05-16T09:17:42.334Z,56.90
2023-05-16T09:20:20.399Z,57.80
2023-05-16T09:22:58.780Z,56.90
2023-05-16T09:25:31.993Z,58.30
2023-05-16T09:28:02.780Z,58.40
2023-05-16T09:30:34.376Z,57.10
2023-05-16T09:33:02.017Z,58.90
2023-05-16T09:37:59.776Z,57.10
2023-05-16T09:40:26.764Z,58.10
2023-05-16T09:43:08.498Z,57.70
2023-05-16T09:45:36.889Z,57.40
2023-05-16T09:48:09.000Z,57.20
2023-05-16T09:50:37.813Z,57.60
2023-05-16T09:53:05.756Z,56.70
2023-05-16T09:55:33.396Z,57.80
2023-05-16T09:58:00.589Z,57.60
2023-05-16T10:00:32.387Z,59.00
2023-05-16T10:03:04.283Z,56.30
2023-05-16T10:05:33.061Z,58.20
2023-05-16T10:08:02.655Z,57.60
2023-05-16T10:10:30.470Z,59.40
2023-05-16T10:13:01.673Z,59.40
2023-05-16T10:15:30.350Z,57.00
2023-05-16T10:18:02.018Z,57.40
2023-05-16T10:20:29.874Z,57.70
2023-05-16T10:22:58.225Z,56.90
2023-05-16T10:25:36.637Z,55.90
2023-05-16T10:28:07.244Z,55.10
2023-05-16T10:30:35.281Z,54.80
2023-05-16T10:33:04.441Z,55.00
2023-05-16T10:35:33.787Z,58.60
2023-05-16T10:38:01.728Z,56.00
2023-05-16T10:40:30.956Z,57.60
2023-05-16T10:43:03.884Z,57.00
2023-05-16T10:45:31.858Z,55.60
2023-05-16T10:48:01.304Z,58.30
2023-05-16T10:50:43.067Z,55.30
2023-05-16T10:53:20.306Z,55.60
2023-05-16T10:56:05.488Z,55.80
2023-05-16T10:58:38.649Z,55.90
2023-05-16T11:01:25.478Z,55.90
2023-05-16T11:04:13.052Z,56.60
2023-05-16T11:06:43.259Z,57.20
2023-05-16T11:09:16.266Z,57.00
2023-05-16T11:11:52.824Z,56.50
2023-05-16T11:14:27.287Z,57.10
2023-05-16T11:17:06.682Z,56.90
2023-05-16T11:19:48.451Z,58.80
2023-05-16T11:22:41.135Z,58.60
2023-05-16T11:25:10.668Z,57.70
2023-05-16T11:27:45.962Z,57.90
2023-05-16T11:30:17.728Z,58.60
2023-05-16T11:32:46.255Z,57.80
2023-05-16T11:35:15.979Z,57.70
2023-05-16T11:37:45.085Z,59.30
2023-05-16T11:40:13.777Z,59.20
2023-05-16T11:42:44.350Z,59.10
2023-05-16T11:45:14.972Z,58.60
2023-05-16T11:47:44.636Z,59.60
2023-05-16T11:50:13.967Z,58.90
2023-05-16T11:52:45.059Z,58.30
2023-05-16T11:55:15.593Z,58.60
2023-05-16T11:57:44.673Z,58.60
2023-05-16T12:00:17.075Z,59.50
2023-05-16T12:02:51.038Z,59.60
2023-05-16T12:05:20.869Z,60.00
2023-05-16T12:07:48.427Z,60.50
2023-05-16T12:10:16.956Z,61.30
2023-05-16T12:12:50.021Z,61.20
2023-05-16T12:15:17.600Z,61.90
2023-05-16T12:17:46.080Z,62.90
2023-05-16T12:20:14.731Z,63.50
2023-05-16T12:22:43.176Z,63.10
2023-05-16T12:25:27.738Z,61.70
2023-05-16T12:27:57.342Z,61.40
2023-05-16T12:30:25.709Z,61.10
2023-05-16T12:32:56.387Z,62.10
2023-05-16T12:35:25.106Z,62.50
2023-05-16T12:37:53.474Z,62.70
2023-05-16T12:40:20.950Z,62.70
2023-05-16T12:42:54.271Z,63.40
2023-05-16T12:45:23.498Z,64.90
2023-05-16T12:47:51.285Z,64.30
2023-05-16T12:50:18.464Z,64.50
2023-05-16T12:52:59.114Z,64.10
2023-05-16T12:55:27.068Z,64.30
2023-05-16T12:57:58.267Z,65.20
2023-05-16T13:00:25.677Z,63.30
2023-05-16T13:02:53.160Z,63.70
2023-05-16T13:05:22.229Z,63.70
2023-05-16T13:07:51.633Z,63.40
2023-05-16T13:10:19.496Z,63.30
2023-05-16T13:12:47.392Z,64.10
2023-05-16T13:15:15.308Z,64.60
2023-05-16T13:17:46.326Z,64.70
2023-05-16T13:20:15.993Z,64.80
2023-05-16T13:22:44.950Z,65.30
2023-05-16T13:25:12.487Z,64.90
2023-05-16T13:27:39.678Z,64.50
2023-05-16T13:30:07.513Z,64.60
2023-05-16T13:32:34.702Z,65.10
2023-05-16T13:35:06.944Z,65.30
2023-05-16T13:37:34.369Z,64.70
2023-05-16T13:40:01.637Z,64.70
2023-05-16T13:42:28.774Z,64.30
2023-05-16T13:44:55.792Z,64.30
2023-05-16T13:47:22.873Z,65.20
2023-05-16T13:49:50.116Z,65.30
2023-05-16T13:52:17.334Z,65.70
2023-05-16T13:54:44.387Z,67.10
2023-05-16T13:57:11.640Z,68.50
2023-05-16T14:00:03.958Z,68.40
2023-05-16T14:02:26.762Z,70.10
2023-05-16T14:04:54.145Z,70.20
2023-05-16T14:07:21.296Z,70.60
2023-05-16T14:09:48.300Z,72.30
2023-05-16T14:12:15.473Z,72.00
2023-05-16T14:14:42.568Z,72.10
2023-05-16T14:17:09.682Z,73.10
2023-05-16T14:19:36.811Z,73.20
2023-05-16T14:22:06.738Z,72.30
2023-05-16T14:24:34.312Z,72.30
2023-05-16T14:27:01.998Z,73.10
2023-05-16T14:29:29.340Z,74.40
2023-05-16T14:31:57.326Z,74.00
2023-05-16T14:34:24.383Z,74.50
2023-05-16T14:36:51.856Z,73.60
2023-05-16T14:39:19.009Z,73.80
2023-05-16T14:41:46.625Z,73.70
2023-05-16T14:44:13.791Z,74.30
2023-05-16T14:46:40.962Z,73.90
2023-05-16T14:49:09.243Z,72.60
2023-05-16T14:51:36.567Z,72.90
2023-05-16T14:54:05.516Z,73.00
2023-05-16T14:56:33.412Z,73.40
2023-05-16T14:59:00.596Z,75.30
2023-05-16T15:01:27.898Z,74.90
2023-05-16T15:03:56.588Z,75.40
2023-05-16T15:06:24.891Z,76.10
2023-05-16T15:08:52.125Z,75.60
2023-05-16T15:11:19.579Z,75.60
2023-05-16T15:13:46.914Z,76.00
2023-05-16T15:16:14.156Z,75.40
2023-05-16T15:18:41.811Z,75.50
2023-05-16T15:21:09.227Z,76.10
2023-05-16T15:23:36.795Z,76.00
2023-05-16T15:26:07.403Z,75.60
2023-05-16T15:28:34.663Z,75.90
2023-05-16T15:31:03.406Z,76.30
2023-05-16T15:33:30.442Z,76.40
2023-05-16T15:35:58.165Z,77.20
2023-05-16T15:38:25.393Z,77.70
2023-05-16T15:41:09.773Z,76.50
2023-05-16T15:43:40.656Z,76.50
2023-05-16T15:46:09.747Z,77.50
2023-05-16T15:48:37.769Z,77.10
2023-05-16T15:51:04.908Z,77.40
2023-05-16T15:53:31.989Z,77.30
2023-05-16T15:55:58.912Z,77.50
2023-05-16T15:58:25.987Z,78.00
2023-05-16T16:00:55.187Z,78.40
2023-05-16T16:03:22.500Z,79.20
2023-05-16T16:05:51.131Z,79.20
2023-05-16T16:08:20.045Z,79.50
2023-05-16T16:10:48.758Z,79.80
2023-05-16T16:13:15.804Z,79.60
2023-05-16T16:15:42.919Z,79.70
2023-05-16T16:18:11.720Z,79.40
2023-05-16T16:20:38.900Z,79.40
2023-05-16T16:23:05.973Z,79.10
2023-05-16T16:25:33.314Z,79.60
2023-05-16T16:28:00.810Z,79.50
2023-05-16T16:30:28.054Z,79.10
2023-05-16T16:32:55.179Z,79.30
2023-05-16T16:35:25.765Z,79.30
2023-05-16T16:38:05.744Z,78.80
2023-05-16T16:40:33.785Z,79.10
2023-05-16T16:43:01.440Z,79.30
2023-05-16T16:45:28.945Z,79.60
2023-05-16T16:47:56.771Z,79.90
2023-05-16T16:50:23.964Z,80.90
2023-05-16T16:52:51.240Z,80.80
2023-05-16T16:55:18.268Z,81.10
2023-05-16T16:57:45.777Z,81.40
2023-05-16T17:00:14.149Z,81.10
2023-05-16T17:02:41.641Z,80.70
2023-05-16T17:05:10.598Z,80.60
2023-05-16T17:07:37.852Z,80.70
2023-05-16T17:10:05.654Z,81.00
2023-05-16T17:12:34.670Z,81.30
2023-05-16T17:15:03.384Z,81.30
2023-05-16T17:17:30.478Z,81.30
2023-05-16T17:19:57.558Z,81.50
2023-05-16T17:22:24.674Z,81.90
2023-05-16T17:24:51.751Z,82.00
2023-05-16T17:27:19.072Z,81.80
2023-05-16T17:29:46.199Z,81.40
2023-05-16T17:32:13.214Z,82.00
2023-05-16T17:34:40.225Z,82.00
2023-05-16T17:37:07.387Z,81.90
2023-05-16T17:39:34.446Z,82.00
2023-05-16T17:42:02.690Z,81.80
2023-05-16T17:44:29.752Z,81.80
2023-05-16T17:46:57.208Z,81.80
2023-05-16T17:49:25.254Z,81.70
2023-05-16T17:51:54.277Z,81.50
2023-05-16T17:54:22.777Z,81.70
2023-05-16T17:56:50.984Z,81.40
2023-05-16T17:59:18.159Z,81.90
2023-05-16T18:01:45.363Z,82.60
2023-05-16T18:04:13.336Z,82.80
2023-05-16T18:06:41.114Z,82.40
2023-05-16T18:09:09.995Z,82.30
2023-05-16T18:11:39.564Z,82.90
2023-05-16T18:14:09.330Z,82.80
2023-05-16T18:16:36.868Z,82.30
2023-05-16T18:19:08.755Z,83.20
2023-05-16T18:21:37.596Z,83.80
2023-05-16T18:24:05.398Z,83.60
2023-05-16T18:26:32.494Z,83.60
2023-05-16T18:28:59.710Z,83.30
2023-05-16T18:31:26.843Z,83.40
2023-05-16T18:33:53.972Z,83.60
2023-05-16T18:36:21.077Z,83.70
2023-05-16T18:38:48.180Z,83.80
2023-05-16T18:41:15.895Z,84.10
2023-05-16T18:43:42.978Z,83.90
2023-05-16T18:46:10.174Z,84.00
2023-05-16T18:48:37.305Z,84.40
2023-05-16T18:51:04.422Z,84.40
2023-05-16T18:53:31.393Z,84.70
2023-05-16T18:55:58.855Z,84.60
2023-05-16T18:58:26.419Z,84.80
2023-05-16T19:00:53.514Z,84.70
2023-05-16T19:03:23.388Z,84.90
2023-05-16T19:05:53.770Z,85.40
2023-05-16T19:08:21.128Z,85.60
2023-05-16T19:10:48.213Z,85.70
2023-05-16T19:13:15.391Z,85.60
2023-05-16T19:15:42.449Z,85.60
2023-05-16T19:18:13.220Z,85.80
2023-05-16T19:20:40.778Z,85.90
2023-05-16T19:23:08.466Z,85.90
2023-05-16T19:25:35.683Z,85.00
2023-05-16T19:28:02.799Z,85.60
2023-05-16T19:30:30.298Z,85.30
2023-05-16T19:32:57.597Z,85.20
2023-05-16T19:35:24.922Z,85.10
2023-05-16T19:37:52.100Z,85.10
2023-05-16T19:40:19.175Z,85.00
2023-05-16T19:42:46.499Z,85.00
2023-05-16T19:45:13.648Z,85.00
2023-05-16T19:47:40.956Z,85.30
2023-05-16T19:50:09.041Z,85.40
2023-05-16T19:52:36.503Z,85.60
2023-05-16T19:55:04.729Z,85.80
2023-05-16T19:57:31.848Z,85.50
2023-05-16T19:59:58.982Z,85.80
2023-05-16T20:02:26.257Z,85.70
2023-05-16T20:04:53.327Z,85.50
2023-05-16T20:07:20.763Z,85.60
2023-05-16T20:09:47.943Z,85.80
2023-05-16T20:12:15.427Z,86.10
2023-05-16T20:14:42.481Z,86.20
2023-05-16T20:17:09.589Z,86.10
2023-05-16T20:19:37.642Z,86.00
2023-05-16T20:22:04.969Z,85.90
2023-05-16T20:24:32.044Z,86.20
2023-05-16T20:26:59.184Z,86.00
2023-05-16T20:29:26.539Z,86.00
2023-05-16T20:31:53.723Z,86.00
2023-05-16T20:34:20.746Z,85.90
2023-05-16T20:36:47.997Z,85.70
2023-05-16T20:39:18.067Z,85.70
2023-05-16T20:41:45.171Z,85.70
2023-05-16T20:44:12.207Z,85.60
2023-05-16T20:46:40.556Z,85.80
2023-05-16T20:49:07.614Z,85.90
2023-05-16T20:51:34.696Z,85.50
2023-05-16T20:54:01.872Z,85.50
2023-05-16T20:56:29.045Z,85.50
2023-05-16T20:58:55.998Z,86.10
2023-05-16T21:01:23.071Z,86.20
2023-05-16T21:03:50.361Z,86.20
2023-05-16T21:06:17.629Z,86.10
2023-05-16T21:08:44.699Z,86.30
2023-05-16T21:11:11.823Z,86.30
2023-05-16T21:13:38.845Z,86.20
2023-05-16T21:16:06.309Z,86.50
2023-05-16T21:18:33.464Z,86.30
2023-05-16T21:21:00.659Z,86.30
2023-05-16T21:23:27.797Z,86.60
2023-05-16T21:25:54.873Z,86.50
2023-05-16T21:28:21.833Z,86.40
2023-05-16T21:30:49.094Z,86.40
2023-05-16T21:33:16.381Z,86.40
2023-05-16T21:35:43.517Z,86.40
2023-05-16T21:38:10.563Z,86.40
2023-05-16T21:40:37.707Z,86.60
2023-05-16T21:43:04.853Z,86.70
2023-05-16T21:45:31.914Z,86.60
2023-05-16T21:47:59.055Z,86.50
2023-05-16T21:50:26.173Z,86.30
2023-05-16T21:52:53.165Z,85.90
2023-05-16T21:55:20.215Z,85.70
2023-05-16T21:57:47.321Z,85.50
2023-05-16T22:00:15.008Z,85.80
2023-05-16T22:02:42.158Z,86.20
2023-05-16T22:05:09.796Z,86.40
2023-05-16T22:07:37.302Z,86.60
2023-05-16T22:10:05.103Z,86.70
2023-05-16T22:12:32.254Z,86.80
2023-05-16T22:14:59.402Z,86.80
2023-05-16T22:17:26.603Z,86.90
2023-05-16T22:19:54.160Z,87.00
2023-05-16T22:22:21.270Z,86.80
2023-05-16T22:24:48.412Z,86.60
2023-05-16T22:27:15.561Z,86.60
2023-05-16T22:29:42.636Z,86.40
2023-05-16T22:32:10.466Z,86.50
2023-05-16T22:34:40.858Z,86.40
2023-05-16T22:37:09.428Z,86.40
2023-05-16T22:39:36.697Z,86.30
2023-05-16T22:42:06.692Z,86.20
2023-05-16T22:44:33.800Z,86.10
2023-05-16T22:47:00.900Z,86.10
2023-05-16T22:49:27.915Z,86.50
2023-05-16T22:51:54.922Z,86.40
2023-05-16T22:54:21.980Z,86.70
2023-05-16T22:56:48.969Z,86.70
2023-05-16T22:59:16.076Z,86.70
2023-05-16T23:01:43.170Z,86.60
2023-05-16T23:04:10.477Z,86.70
2023-05-16T23:06:37.595Z,86.60
2023-05-16T23:09:04.912Z,86.40
2023-05-16T23:11:32.654Z,86.50
2023-05-16T23:13:59.967Z,87.00
2023-05-16T23:16:26.989Z,87.10
2023-05-16T23:18:54.144Z,87.00
2023-05-16T23:21:21.311Z,87.10
2023-05-16T23:23:50.488Z,87.30
2023-05-16T23:26:17.439Z,87.00
2023-05-16T23:28:44.480Z,87.10
2023-05-16T23:31:11.524Z,86.80
2023-05-16T23:33:38.728Z,86.80
2023-05-16T23:36:06.314Z,86.80
2023-05-16T23:38:33.307Z,86.50
2023-05-16T23:41:00.606Z,86.00
2023-05-16T23:43:27.746Z,86.20
2023-05-16T23:45:54.799Z,86.30
2023-05-16T23:48:21.963Z,86.80
2023-05-16T23:50:49.040Z,87.00
2023-05-16T23:53:16.801Z,86.80
2023-05-16T23:55:43.825Z,86.90
2023-05-16T23:58:12.165Z,86.70
